createdAt,value
2018-07-23T00:00:48.526Z,18.07
2018-07-23T00:03:18.681Z,18.08
2018-07-23T00:05:48.038Z,18.09
2018-07-23T00:08:17.331Z,18.07
2018-07-23T00:10:47.274Z,18.03
2018-07-23T00:13:16.454Z,18.01
2018-07-23T00:15:45.857Z,18.00
2018-07-23T00:18:15.276Z,17.97
2018-07-23T00:20:44.848Z,17.99
2018-07-23T00:23:14.459Z,17.99
2018-07-23T00:25:44.110Z,17.98
2018-07-23T00:28:13.772Z,17.98
2018-07-23T00:30:43.388Z,17.96
2018-07-23T00:33:12.994Z,17.97
2018-07-23T00:35:42.666Z,17.93
2018-07-23T00:38:12.281Z,17.95
2018-07-23T00:40:42.664Z,17.98
2018-07-23T00:43:12.410Z,17.99
2018-07-23T00:45:41.976Z,18.00
2018-07-23T00:48:13.327Z,18.00
2018-07-23T00:50:42.877Z,18.01
2018-07-23T00:53:12.420Z,18.03
2018-07-23T00:58:42.453Z,18.04
2018-07-23T01:01:13.391Z,18.02
2018-07-23T01:03:43.372Z,18.00
2018-07-23T01:06:14.850Z,17.96
2018-07-23T01:08:44.379Z,17.96
2018-07-23T01:11:13.978Z,17.98
2018-07-23T01:13:43.790Z,17.98
2018-07-23T01:16:13.488Z,17.97
2018-07-23T01:18:43.149Z,17.93
2018-07-23T01:21:12.957Z,17.87
2018-07-23T01:23:42.872Z,17.83
2018-07-23T01:26:12.729Z,17.85
2018-07-23T01:28:42.502Z,17.85
2018-07-23T01:31:12.629Z,17.87
2018-07-23T01:33:42.416Z,17.77
2018-07-23T01:36:12.239Z,17.83
2018-07-23T01:38:42.059Z,17.79
2018-07-23T01:41:11.761Z,17.80
2018-07-23T01:43:41.501Z,17.78
2018-07-23T01:46:11.373Z,17.74
2018-07-23T01:48:41.085Z,17.75
2018-07-23T01:51:10.758Z,17.74
2018-07-23T01:53:40.707Z,17.69
2018-07-23T01:56:10.972Z,17.68
2018-07-23T01:58:40.873Z,17.64
2018-07-23T02:01:12.703Z,17.61
2018-07-23T02:03:42.834Z,17.54
2018-07-23T02:06:12.460Z,17.54
2018-07-23T02:08:42.416Z,17.54
2018-07-23T02:11:12.180Z,17.51
2018-07-23T02:13:41.881Z,17.50
2018-07-23T02:16:11.470Z,17.50
2018-07-23T02:18:41.025Z,17.48
2018-07-23T02:21:10.728Z,17.48
2018-07-23T02:23:41.560Z,17.46
2018-07-23T02:26:11.776Z,17.45
2018-07-23T02:28:41.322Z,17.43
2018-07-23T02:31:11.384Z,17.44
2018-07-23T02:33:42.285Z,17.38
2018-07-23T02:36:12.429Z,17.31
2018-07-23T02:38:42.421Z,17.36
2018-07-23T02:41:11.928Z,17.28
2018-07-23T02:43:41.537Z,17.30
2018-07-23T02:46:11.471Z,17.25
2018-07-23T02:48:41.459Z,17.23
2018-07-23T02:51:11.320Z,17.21
2018-07-23T02:53:41.946Z,17.20
2018-07-23T02:56:11.625Z,17.21
2018-07-23T02:58:41.531Z,17.20
2018-07-23T03:01:11.210Z,17.12
2018-07-23T03:03:40.855Z,17.10
2018-07-23T03:06:11.013Z,17.10
2018-07-23T03:08:40.990Z,17.10
2018-07-23T03:11:10.636Z,17.03
2018-07-23T03:13:40.462Z,17.08
2018-07-23T03:16:10.240Z,17.10
2018-07-23T03:18:40.656Z,17.09
2018-07-23T03:21:11.427Z,17.11
2018-07-23T03:23:41.212Z,17.13
2018-07-23T03:26:10.914Z,17.12
2018-07-23T03:28:40.997Z,17.12
2018-07-23T03:31:10.775Z,17.13
2018-07-23T03:33:40.501Z,17.13
2018-07-23T03:36:10.451Z,17.10
2018-07-23T03:38:40.452Z,17.03
2018-07-23T03:41:10.780Z,17.04
2018-07-23T03:43:41.232Z,17.02
2018-07-23T03:46:11.393Z,17.00
2018-07-23T03:48:41.178Z,16.97
2018-07-23T03:51:11.022Z,16.93
2018-07-23T03:53:41.100Z,16.95
2018-07-23T03:56:11.342Z,16.99
2018-07-23T03:58:41.405Z,17.00
2018-07-23T04:01:11.053Z,17.01
2018-07-23T04:03:40.557Z,17.05
2018-07-23T04:06:10.382Z,17.06
2018-07-23T04:08:40.691Z,17.09
2018-07-23T04:11:10.399Z,17.10
2018-07-23T04:13:41.040Z,17.10
2018-07-23T04:16:10.748Z,17.13
2018-07-23T04:18:40.337Z,17.16
2018-07-23T04:21:10.171Z,17.23
2018-07-23T04:23:40.007Z,17.28
2018-07-23T04:26:09.588Z,17.28
2018-07-23T04:28:39.532Z,17.36
2018-07-23T04:31:09.500Z,17.36
2018-07-23T04:33:39.236Z,17.38
2018-07-23T04:36:09.559Z,17.43
2018-07-23T04:38:39.317Z,17.46
2018-07-23T04:41:09.075Z,17.50
2018-07-23T04:43:38.784Z,17.54
2018-07-23T04:46:08.733Z,17.61
2018-07-23T04:48:38.955Z,17.64
2018-07-23T04:51:09.088Z,17.74
2018-07-23T04:53:38.729Z,17.79
2018-07-23T04:56:08.611Z,17.84
2018-07-23T04:58:38.866Z,17.89
2018-07-23T05:01:09.068Z,17.98
2018-07-23T05:03:39.655Z,18.02
2018-07-23T05:06:09.668Z,18.04
2018-07-23T05:08:39.558Z,18.09
2018-07-23T05:11:09.283Z,18.12
2018-07-23T05:13:40.243Z,18.24
2018-07-23T05:16:10.343Z,18.33
2018-07-23T05:18:40.093Z,18.36
2018-07-23T05:21:12.839Z,18.43
2018-07-23T05:23:42.586Z,18.49
2018-07-23T05:26:12.123Z,18.57
2018-07-23T05:28:41.922Z,18.64
2018-07-23T05:31:11.608Z,18.70
2018-07-23T05:33:41.851Z,18.78
2018-07-23T05:36:12.132Z,19.01
2018-07-23T05:38:42.374Z,19.20
2018-07-23T05:41:12.174Z,19.36
2018-07-23T05:43:43.413Z,19.50
2018-07-23T05:46:13.283Z,19.50
2018-07-23T05:48:43.275Z,19.59
2018-07-23T05:51:13.610Z,19.68
2018-07-23T05:53:43.638Z,19.77
2018-07-23T05:56:13.559Z,19.78
2018-07-23T05:58:43.825Z,19.88
2018-07-23T06:01:14.213Z,19.99
2018-07-23T06:03:44.631Z,20.07
2018-07-23T06:06:14.697Z,20.21
2018-07-23T06:08:44.963Z,20.12
2018-07-23T06:11:15.090Z,20.25
2018-07-23T06:13:45.866Z,20.34
2018-07-23T06:16:16.881Z,20.46
2018-07-23T06:18:46.676Z,20.54
2018-07-23T06:21:16.730Z,20.55
2018-07-23T06:23:46.951Z,20.58
2018-07-23T06:26:16.580Z,20.64
2018-07-23T06:28:46.385Z,20.69
2018-07-23T06:31:16.510Z,20.82
2018-07-23T06:33:46.107Z,20.82
2018-07-23T06:36:17.101Z,20.84
2018-07-23T06:38:46.968Z,20.90
2018-07-23T06:41:17.070Z,20.87
2018-07-23T06:43:47.024Z,20.96
2018-07-23T06:46:16.804Z,21.06
2018-07-23T06:48:46.739Z,21.30
2018-07-23T06:51:16.459Z,21.30
2018-07-23T06:53:46.342Z,21.31
2018-07-23T06:56:16.080Z,21.49
2018-07-23T06:58:46.097Z,21.56
2018-07-23T07:01:15.934Z,21.57
2018-07-23T07:03:46.060Z,21.59
2018-07-23T07:06:16.139Z,21.55
2018-07-23T07:08:46.194Z,21.71
2018-07-23T07:11:15.929Z,21.77
2018-07-23T07:13:45.880Z,21.76
2018-07-23T07:16:15.373Z,21.76
2018-07-23T07:18:45.222Z,21.77
2018-07-23T07:21:14.914Z,21.91
2018-07-23T07:23:44.691Z,21.83
2018-07-23T07:26:14.240Z,21.94
2018-07-23T07:28:44.622Z,22.24
2018-07-23T07:31:14.354Z,22.24
2018-07-23T07:33:45.499Z,22.20
2018-07-23T07:36:15.577Z,22.25
2018-07-23T07:38:45.393Z,22.35
2018-07-23T07:41:15.546Z,22.46
2018-07-23T07:43:45.079Z,22.63
2018-07-23T07:46:14.809Z,22.79
2018-07-23T07:48:45.373Z,22.89
2018-07-23T07:51:15.081Z,22.91
2018-07-23T07:53:44.632Z,22.98
2018-07-23T07:56:14.498Z,22.93
2018-07-23T07:58:44.129Z,23.01
2018-07-23T08:01:14.047Z,23.19
2018-07-23T08:03:43.700Z,23.27
2018-07-23T08:06:13.404Z,23.25
2018-07-23T08:08:43.453Z,23.29
2018-07-23T08:11:13.126Z,23.28
2018-07-23T08:13:42.801Z,23.22
2018-07-23T08:16:12.646Z,23.02
2018-07-23T08:18:42.731Z,23.04
2018-07-23T08:21:12.579Z,23.14
2018-07-23T08:23:42.360Z,23.51
2018-07-23T08:26:12.496Z,23.80
2018-07-23T08:28:42.508Z,23.84
2018-07-23T08:31:12.311Z,23.67
2018-07-23T08:33:42.237Z,23.78
2018-07-23T08:36:12.155Z,23.82
2018-07-23T08:38:41.934Z,24.01
2018-07-23T08:41:11.788Z,23.70
2018-07-23T08:43:42.219Z,23.63
2018-07-23T08:46:12.537Z,23.71
2018-07-23T08:48:42.475Z,23.86
2018-07-23T08:51:12.350Z,23.96
2018-07-23T08:53:42.874Z,24.02
2018-07-23T08:56:13.028Z,24.21
2018-07-23T08:58:42.826Z,24.47
2018-07-23T09:01:12.933Z,24.50
2018-07-23T09:03:43.355Z,24.60
2018-07-23T09:06:13.371Z,24.72
2018-07-23T09:08:43.465Z,24.73
2018-07-23T09:11:13.221Z,24.79
2018-07-23T09:13:43.325Z,24.85
2018-07-23T09:16:13.254Z,25.25
2018-07-23T09:18:43.049Z,25.29
2018-07-23T09:21:13.475Z,25.35
2018-07-23T09:23:43.710Z,25.07
2018-07-23T09:26:13.628Z,24.86
2018-07-23T09:28:43.469Z,25.24
2018-07-23T09:31:13.884Z,25.43
2018-07-23T09:33:43.602Z,25.77
2018-07-23T09:36:13.722Z,26.05
2018-07-23T09:38:43.297Z,26.27
2018-07-23T09:41:13.320Z,26.11
2018-07-23T09:43:43.609Z,25.88
2018-07-23T09:46:14.491Z,26.37
2018-07-23T09:48:44.207Z,27.24
2018-07-23T09:51:16.180Z,27.82
2018-07-23T09:53:46.004Z,27.28
2018-07-23T09:56:15.672Z,26.94
2018-07-23T09:58:45.532Z,27.20
2018-07-23T10:01:19.899Z,28.08
2018-07-23T10:03:49.927Z,28.32
2018-07-23T10:06:19.849Z,27.94
2018-07-23T10:08:49.728Z,27.13
2018-07-23T10:11:19.554Z,26.82
2018-07-23T10:13:49.100Z,27.06
2018-07-23T10:16:18.796Z,27.52
2018-07-23T10:18:48.552Z,28.44
2018-07-23T10:21:19.050Z,28.72
2018-07-23T10:23:49.333Z,28.19
2018-07-23T10:26:18.887Z,27.66
2018-07-23T10:28:48.560Z,27.54
2018-07-23T10:31:18.506Z,27.40
2018-07-23T10:33:48.337Z,27.24
2018-07-23T10:36:18.469Z,27.65
2018-07-23T10:38:49.284Z,27.83
2018-07-23T10:41:19.258Z,27.68
2018-07-23T10:43:49.138Z,27.30
2018-07-23T10:46:19.229Z,26.97
2018-07-23T10:48:49.451Z,26.91
2018-07-23T10:51:19.478Z,26.55
2018-07-23T10:53:49.497Z,26.22
2018-07-23T10:56:19.407Z,26.17
2018-07-23T10:58:49.319Z,26.18
2018-07-23T11:01:19.225Z,26.20
2018-07-23T11:03:48.927Z,26.24
2018-07-23T11:06:18.681Z,26.22
2018-07-23T11:08:48.524Z,26.32
2018-07-23T11:11:18.150Z,26.16
2018-07-23T11:13:48.658Z,26.14
2018-07-23T11:16:18.873Z,26.09
2018-07-23T11:18:49.328Z,26.31
2018-07-23T11:21:19.466Z,26.92
2018-07-23T11:23:49.393Z,27.15
2018-07-23T11:26:20.058Z,27.39
2018-07-23T11:28:49.803Z,27.38
2018-07-23T11:31:19.585Z,27.46
2018-07-23T11:33:49.965Z,27.44
2018-07-23T11:36:19.825Z,27.57
2018-07-23T11:38:49.868Z,27.47
2018-07-23T11:41:19.479Z,27.38
2018-07-23T11:43:49.407Z,27.46
2018-07-23T11:46:24.984Z,27.60
2018-07-23T11:48:49.107Z,27.57
2018-07-23T11:51:18.853Z,27.49
2018-07-23T11:53:48.516Z,27.59
2018-07-23T11:56:18.128Z,27.54
2018-07-23T11:58:47.758Z,27.95
2018-07-23T12:01:17.706Z,28.13
2018-07-23T12:03:47.432Z,27.89
2018-07-23T12:06:17.974Z,27.50
2018-07-23T12:08:48.598Z,27.39
2018-07-23T12:11:19.782Z,27.36
2018-07-23T12:13:50.076Z,27.03
2018-07-23T12:16:20.512Z,27.50
2018-07-23T12:18:50.282Z,28.06
2018-07-23T12:21:19.713Z,27.83
2018-07-23T12:23:49.739Z,27.68
2018-07-23T12:26:19.589Z,27.82
2018-07-23T12:28:49.898Z,28.44
2018-07-23T12:31:19.813Z,29.18
2018-07-23T12:33:49.641Z,29.59
2018-07-23T12:36:19.448Z,29.99
2018-07-23T12:38:49.183Z,30.51
2018-07-23T12:41:18.993Z,30.80
2018-07-23T12:43:49.615Z,31.28
2018-07-23T12:46:20.026Z,31.71
2018-07-23T12:48:49.804Z,32.15
2018-07-23T12:51:19.896Z,32.40
2018-07-23T12:53:49.924Z,32.17
2018-07-23T12:56:21.071Z,31.47
2018-07-23T12:58:50.745Z,30.63
2018-07-23T13:01:19.965Z,30.26
2018-07-23T13:03:49.732Z,29.62
2018-07-23T13:06:19.462Z,29.65
2018-07-23T13:08:52.293Z,30.49
2018-07-23T13:11:21.865Z,31.38
2018-07-23T13:13:51.312Z,31.80
2018-07-23T13:16:21.025Z,30.95
2018-07-23T13:18:50.785Z,31.01
2018-07-23T13:21:20.351Z,30.78
2018-07-23T13:23:49.894Z,31.19
2018-07-23T13:26:19.875Z,31.57
2018-07-23T13:28:49.764Z,32.22
2018-07-23T13:31:19.513Z,32.85
2018-07-23T13:33:54.766Z,33.05
2018-07-23T13:36:25.244Z,33.46
2018-07-23T13:38:54.685Z,33.26
2018-07-23T13:41:24.406Z,32.92
2018-07-23T13:43:53.731Z,33.22
2018-07-23T13:46:23.303Z,33.62
2018-07-23T13:48:52.792Z,33.91
2018-07-23T13:51:22.206Z,32.45
2018-07-23T13:53:52.292Z,31.37
2018-07-23T13:56:21.692Z,30.88
2018-07-23T13:58:51.098Z,31.23
2018-07-23T14:01:20.648Z,31.74
2018-07-23T14:03:50.097Z,30.86
2018-07-23T14:06:20.006Z,31.77
2018-07-23T14:08:49.664Z,31.79
2018-07-23T14:11:19.643Z,32.85
2018-07-23T14:13:49.344Z,33.02
2018-07-23T14:16:18.907Z,33.08
2018-07-23T14:18:48.932Z,32.97
2018-07-23T14:21:18.657Z,33.25
2018-07-23T14:23:48.880Z,33.19
2018-07-23T14:26:18.933Z,33.25
2018-07-23T14:28:48.885Z,33.40
2018-07-23T14:31:18.600Z,33.94
2018-07-23T14:33:48.343Z,33.83
2018-07-23T14:36:18.201Z,33.86
2018-07-23T14:38:47.987Z,34.03
2018-07-23T14:41:17.855Z,34.27
2018-07-23T14:43:47.438Z,34.50
2018-07-23T14:46:17.195Z,34.01
2018-07-23T14:48:46.979Z,34.13
2018-07-23T14:51:16.697Z,34.22
2018-07-23T14:53:46.388Z,33.89
2018-07-23T14:56:16.481Z,33.99
2018-07-23T14:58:46.245Z,34.75
2018-07-23T15:01:17.069Z,35.16
2018-07-23T15:03:47.824Z,35.30
2018-07-23T15:06:18.747Z,35.20
2018-07-23T15:08:48.728Z,34.99
2018-07-23T15:11:18.780Z,35.09
2018-07-23T15:13:49.062Z,35.42
2018-07-23T15:16:18.952Z,35.48
2018-07-23T15:18:48.710Z,35.73
2018-07-23T15:21:19.383Z,35.62
2018-07-23T15:27:03.873Z,34.28
2018-07-23T15:29:33.373Z,33.99
2018-07-23T15:32:03.891Z,33.68
2018-07-23T15:34:33.233Z,34.16
2018-07-23T15:37:02.837Z,34.54
2018-07-23T15:39:32.236Z,34.84
2018-07-23T15:42:02.306Z,34.62
2018-07-23T15:44:32.187Z,35.10
2018-07-23T15:47:01.583Z,35.51
2018-07-23T15:49:31.231Z,35.71
2018-07-23T15:52:00.722Z,35.46
2018-07-23T15:54:29.960Z,35.11
2018-07-23T15:56:59.247Z,35.06
2018-07-23T15:59:28.549Z,35.14
2018-07-23T16:01:58.059Z,35.13
2018-07-23T16:04:27.525Z,35.15
2018-07-23T16:06:56.885Z,34.69
2018-07-23T16:09:26.284Z,35.14
2018-07-23T16:11:55.620Z,35.13
2018-07-23T16:14:26.103Z,35.10
2018-07-23T16:16:55.382Z,35.14
2018-07-23T16:19:25.212Z,35.15
2018-07-23T16:21:55.118Z,34.87
2018-07-23T16:24:24.554Z,34.90
2018-07-23T16:27:57.505Z,34.61
2018-07-23T16:30:26.805Z,33.69
2018-07-23T16:32:56.307Z,33.41
2018-07-23T16:35:26.474Z,33.43
2018-07-23T16:37:56.094Z,33.43
2018-07-23T16:40:25.384Z,33.41
2018-07-23T16:42:55.936Z,33.08
2018-07-23T16:45:25.279Z,33.21
2018-07-23T16:47:55.090Z,33.32
2018-07-23T16:50:24.610Z,33.17
2018-07-23T16:52:54.153Z,32.74
2018-07-23T16:55:23.578Z,32.10
2018-07-23T16:57:53.434Z,31.49
2018-07-23T17:00:22.770Z,30.73
2018-07-23T17:02:52.239Z,30.30
2018-07-23T17:05:23.264Z,29.62
2018-07-23T17:07:53.167Z,29.36
2018-07-23T17:10:22.703Z,29.07
2018-07-23T17:12:52.658Z,29.18
2018-07-23T17:15:22.350Z,29.04
2018-07-23T17:17:51.999Z,28.96
2018-07-23T17:20:22.008Z,28.92
2018-07-23T17:22:51.308Z,28.71
2018-07-23T17:25:20.611Z,28.75
2018-07-23T17:27:50.566Z,28.60
2018-07-23T17:30:19.952Z,28.44
2018-07-23T17:32:49.649Z,28.33
2018-07-23T17:35:19.536Z,28.16
2018-07-23T17:37:48.963Z,28.06
2018-07-23T17:40:18.766Z,28.12
2018-07-23T17:42:48.581Z,28.17
2018-07-23T17:45:18.857Z,28.12
2018-07-23T17:47:48.526Z,28.05
2018-07-23T17:50:17.949Z,27.95
2018-07-23T17:52:47.675Z,27.91
2018-07-23T17:55:17.265Z,27.84
2018-07-23T17:57:47.125Z,27.76
2018-07-23T18:00:16.786Z,27.90
2018-07-23T18:02:46.448Z,28.43
2018-07-23T18:05:16.910Z,28.98
2018-07-23T18:07:46.754Z,29.32
2018-07-23T18:10:16.189Z,29.73
2018-07-23T18:12:45.975Z,29.88
2018-07-23T18:15:17.145Z,29.98
2018-07-23T18:17:46.767Z,29.79
2018-07-23T18:20:16.528Z,29.94
2018-07-23T18:22:46.154Z,30.03
2018-07-23T18:25:16.699Z,29.88
2018-07-23T18:27:46.719Z,29.84
2018-07-23T18:30:16.772Z,29.68
2018-07-23T18:32:48.222Z,29.47
2018-07-23T18:35:18.010Z,29.46
2018-07-23T18:37:48.171Z,29.27
2018-07-23T18:40:18.892Z,29.23
2018-07-23T18:42:49.106Z,29.10
2018-07-23T18:45:19.252Z,29.12
2018-07-23T18:47:49.557Z,29.17
2018-07-23T18:50:20.240Z,29.15
2018-07-23T18:52:51.152Z,29.05
2018-07-23T18:55:21.916Z,28.88
2018-07-23T18:57:52.360Z,28.52
2018-07-23T19:00:23.868Z,28.19
2018-07-23T19:02:54.313Z,27.91
2018-07-23T19:05:24.033Z,27.65
2018-07-23T19:07:53.737Z,27.35
2018-07-23T19:10:23.327Z,27.14
2018-07-23T19:12:53.301Z,26.92
2018-07-23T19:15:22.946Z,26.72
2018-07-23T19:17:52.631Z,26.52
2018-07-23T19:20:22.427Z,26.30
2018-07-23T19:22:52.237Z,26.23
2018-07-23T19:25:22.401Z,26.05
2018-07-23T19:27:51.820Z,25.87
2018-07-23T19:30:21.544Z,25.84
2018-07-23T19:32:51.231Z,25.62
2018-07-23T19:35:21.312Z,25.40
2018-07-23T19:37:50.727Z,25.42
2018-07-23T19:40:20.710Z,25.32
2018-07-23T19:42:51.213Z,25.38
2018-07-23T19:45:21.467Z,25.21
2018-07-23T19:47:51.615Z,25.21
2018-07-23T19:50:21.143Z,25.10
2018-07-23T19:52:50.685Z,24.97
2018-07-23T19:55:21.357Z,24.82
2018-07-23T19:57:52.156Z,24.79
2018-07-23T20:00:22.131Z,24.76
2018-07-23T20:02:52.349Z,24.78
2018-07-23T20:05:22.680Z,24.73
2018-07-23T20:07:52.723Z,24.67
2018-07-23T20:10:22.543Z,24.68
2018-07-23T20:12:54.271Z,24.59
2018-07-23T20:15:24.085Z,24.51
2018-07-23T20:17:53.973Z,24.45
2018-07-23T20:20:24.085Z,24.40
2018-07-23T20:22:54.017Z,24.44
2018-07-23T20:25:23.943Z,24.41
2018-07-23T20:27:54.253Z,24.34
2018-07-23T20:30:24.126Z,24.34
2018-07-23T20:32:54.085Z,24.26
2018-07-23T20:35:24.207Z,24.21
2018-07-23T20:37:54.402Z,24.11
2018-07-23T20:40:26.791Z,24.04
2018-07-23T20:42:57.046Z,23.90
2018-07-23T20:45:27.442Z,23.81
2018-07-23T20:47:57.073Z,23.65
2018-07-23T20:50:27.755Z,23.66
2018-07-23T20:52:58.230Z,23.66
2018-07-23T20:55:27.823Z,23.67
2018-07-23T20:57:57.371Z,23.57
2018-07-23T21:00:27.111Z,23.55
2018-07-23T21:02:56.325Z,23.49
2018-07-23T21:05:25.619Z,23.43
2018-07-23T21:07:55.095Z,23.40
2018-07-23T21:10:24.599Z,23.38
2018-07-23T21:12:55.301Z,23.38
2018-07-23T21:15:24.713Z,23.28
2018-07-23T21:17:54.292Z,23.30
2018-07-23T21:20:23.746Z,23.27
2018-07-23T21:22:54.280Z,23.25
2018-07-23T21:25:23.754Z,23.25
2018-07-23T21:27:53.131Z,23.20
2018-07-23T21:30:23.092Z,23.10
2018-07-23T21:32:52.756Z,23.00
2018-07-23T21:35:23.534Z,22.99
2018-07-23T21:37:53.021Z,22.86
2018-07-23T21:40:22.401Z,22.82
2018-07-23T21:42:51.803Z,22.69
2018-07-23T21:45:21.588Z,22.53
2018-07-23T21:47:51.188Z,22.37
2018-07-23T21:50:21.525Z,22.53
2018-07-23T21:52:51.773Z,22.60
2018-07-23T21:55:21.720Z,22.56
2018-07-23T21:57:53.002Z,22.44
2018-07-23T22:00:23.339Z,22.38
2018-07-23T22:02:52.793Z,22.32
2018-07-23T22:05:22.557Z,22.12
2018-07-23T22:07:51.995Z,22.04
2018-07-23T22:10:21.480Z,22.14
2018-07-23T22:12:51.172Z,22.15
2018-07-23T22:15:20.708Z,22.13
2018-07-23T22:17:50.396Z,22.02
2018-07-23T22:20:19.993Z,22.04
2018-07-23T22:22:49.542Z,21.96
2018-07-23T22:25:19.104Z,22.04
2018-07-23T22:27:50.382Z,21.97
2018-07-23T22:30:20.086Z,21.97
2018-07-23T22:32:49.918Z,21.95
2018-07-23T22:35:19.544Z,21.93
2018-07-23T22:37:51.284Z,22.01
2018-07-23T22:40:21.132Z,22.22
2018-07-23T22:42:50.664Z,22.28
2018-07-23T22:45:20.152Z,22.25
2018-07-23T22:47:49.862Z,22.31
2018-07-23T22:50:22.163Z,22.23
2018-07-23T22:52:52.213Z,22.09
2018-07-23T22:55:21.672Z,22.03
2018-07-23T22:57:51.372Z,22.04
2018-07-23T23:00:21.733Z,22.01
2018-07-23T23:02:51.629Z,21.94
2018-07-23T23:05:21.275Z,21.88
2018-07-23T23:07:51.025Z,22.06
2018-07-23T23:10:20.823Z,22.06
2018-07-23T23:12:50.439Z,22.11
2018-07-23T23:15:20.597Z,22.15
2018-07-23T23:17:50.061Z,22.13
2018-07-23T23:20:19.709Z,22.02
2018-07-23T23:22:49.273Z,22.01
2018-07-23T23:25:18.819Z,21.75
2018-07-23T23:27:48.489Z,21.72
2018-07-23T23:30:18.491Z,21.93
2018-07-23T23:32:48.416Z,21.94
2018-07-23T23:35:18.190Z,21.94
2018-07-23T23:37:48.783Z,21.93
2018-07-23T23:40:18.651Z,21.83
2018-07-23T23:42:48.477Z,21.76
2018-07-23T23:45:18.227Z,21.70
2018-07-23T23:47:47.984Z,21.63
2018-07-23T23:50:17.551Z,21.63
2018-07-23T23:52:47.307Z,21.65
2018-07-23T23:55:17.222Z,21.59
2018-07-23T23:57:47.141Z,21.57
